Portada
METAR-TAF:

METAR-TAF

Aeropuertos :

Aeropuerto Internacional General José Antonio Anzoátegui

Barcelona, Venezuela

latitud: 10-07N, longitud: 064-41W, altitud: 7 m

Observación

El informe se hizo hace 10 horas y 41 minutos, a las 15:00 UTC
Viento 3 kt del norte-noreste
Temperatura 31°C
Humedad 66%
Presión 1013 hPa
Visibilidad 10 km o más
Nubes dispersas a una altura de 1300 ft

METAR: SVBC 221500Z 02003KT 9999 SCT013 31/24 Q1013

Hora: 21:41 (01:41 UTC)

Pronóstico

El informe se hizo hace 3 horas y 41 minutos, a las 22:00 UTC
Pronóstico válido del 23 a las 00 UTC al 24 a las 00 UTC
Viento 6 kt del noreste
Visibilidad 10 km o más
Nubes dispersas a una altura de 1600 ft
Evolucionando progresivamente
del 23 a las 01 UTC al 23 a las 05 UTC
Viento 4 kt del este

TAF: SVBC 222200Z 2300/2400 05006KT 9999 SCT016 TX33/19Z TN25/08Z BECMG 2301/2305 09004KT

Observaciones y pronósticos meteorológicos de más de 4000 aeropuertos (mensajes METAR y TAF).

Los puntos amarillos y rojos representan las estaciones disponibles.

Ponga el ratón en el punto deseado para ver el nombre de la estación.

Haga clic para ver las observaciones y los pronósticos meteorológicos.

Para cambiar el mapa : haga clic en los botones verdes con una cruz de color negro para hacer un zoom, en el botón verde con un guión para alejar o en las flechas verdes para mapas adyacentes.


METAR-TAF: